»·PEaware :: N6471M KASE-KDEN

N6471M :: KASE-KDEN

FLIGHT INFORMATION

Flight Status: Arrived
Operator: Privately registered:
United States
More flights under this callsign
Pilot: Peter U. (18953)
Aircraft: SAAB 340
(SF34)
More flights by this aircraft type
Origin: KASE Aspen-Pitkin Co/Sardy
United States
Destination: KDEN Denver Intl
United States
More flights between these airports :: More routes between these airports
Route: +LINDZ8 DBL TERRO LARKS8
File this flight plan on PilotEdge
Remarks:
Altitude:
(Current/Filed)
18,000ft
Speed:
(Current/Filed)
180kts
Departed: 28-Apr-18 01:15 PM
Arrived: 28-Apr-18 02:00 PM
Distance/Time
Traveled:
108nm/0:45
Distance/Time
To Go:
Arrived

Flight Plot

Page will automatically refresh every two minutes.

Flight plan parsing failed; only flown route is shown


Map Options




Map Legend


Flown Route
Filed Route
Departure Airport
Arrival Airport
Navaid (VOR, NDB)
Fix

Horizontal Profiles

Position Reports

Time Latitude Longitude Heading Altitude Ground
Speed
28-Apr-18 12:55 39.221095 -106.865233 295 7841ft 0kts
28-Apr-18 12:56 39.221095 -106.865233 295 7841ft 0kts
28-Apr-18 12:57 39.221095 -106.865233 295 7841ft 0kts
28-Apr-18 12:58 39.221095 -106.865233 295 7841ft 0kts
28-Apr-18 12:59 39.221095 -106.865233 295 7841ft 0kts
28-Apr-18 13:00 39.221095 -106.865233 295 7841ft 0kts
28-Apr-18 13:01 39.221095 -106.865233 295 7841ft 0kts
28-Apr-18 13:02 39.221095 -106.865233 295 7841ft 0kts
28-Apr-18 13:03 39.221095 -106.865233 295 7841ft 0kts
28-Apr-18 13:04 39.221095 -106.865233 295 7841ft 0kts
28-Apr-18 13:05 39.221095 -106.865233 295 7841ft 0kts
28-Apr-18 13:06 39.221095 -106.865233 295 7841ft 0kts
28-Apr-18 13:07 39.221095 -106.865233 295 7841ft 0kts
28-Apr-18 13:08 39.221095 -106.865233 295 7841ft 0kts
28-Apr-18 13:09 39.220772 -106.866308 202 7841ft 11kts
28-Apr-18 13:10 39.217083 -106.864772 159 7841ft 3kts
28-Apr-18 13:11 39.212544 -106.862575 161 7841ft 17kts
28-Apr-18 13:12 39.212221 -106.862514 182 7841ft 0kts
28-Apr-18 13:13 39.212281 -106.863674 339 7841ft 9kts
28-Apr-18 13:14 39.234692 -106.873807 345 8029ft 153kts
28-Apr-18 13:15 39.285068 -106.881084 341 9208ft 185kts
28-Apr-18 13:16 39.305623 -106.936499 283 10307ft 177kts
28-Apr-18 13:17 39.318659 -106.997638 284 11313ft 180kts
28-Apr-18 13:18 39.357263 -107.013405 58 12131ft 208kts
28-Apr-18 13:19 39.393177 -106.954546 50 13069ft 209kts
28-Apr-18 13:20 39.433080 -106.900099 67 13936ft 210kts
28-Apr-18 13:21 39.409854 -106.835716 127 14671ft 207kts
28-Apr-18 13:22 39.377259 -106.774885 126 15541ft 204kts
28-Apr-18 13:23 39.344946 -106.714234 126 16562ft 207kts
28-Apr-18 13:24 39.312154 -106.652793 127 17486ft 210kts
28-Apr-18 13:25 39.278270 -106.589783 127 18091ft 225kts
28-Apr-18 13:26 39.240159 -106.519387 127 18107ft 250kts
28-Apr-18 13:27 39.198828 -106.444277 127 18103ft 261kts
28-Apr-18 13:28 39.157555 -106.367640 126 18225ft 262kts
28-Apr-18 13:29 39.116899 -106.291633 126 18222ft 266kts
28-Apr-18 13:30 39.074697 -106.213102 127 18198ft 268kts
28-Apr-18 13:31 39.032391 -106.134204 126 18162ft 269kts
28-Apr-18 13:32 38.989835 -106.055273 126 18137ft 268kts
28-Apr-18 13:33 38.947762 -105.976695 129 18137ft 265kts
28-Apr-18 13:34 38.902333 -105.902575 114 18110ft 266kts
28-Apr-18 13:35 38.926874 -105.821053 52 18139ft 269kts
28-Apr-18 13:36 38.973682 -105.746689 54 18133ft 268kts
28-Apr-18 13:37 39.020610 -105.672551 48 18138ft 266kts
28-Apr-18 13:38 39.068179 -105.599516 48 18138ft 266kts
28-Apr-18 13:39 39.113640 -105.529039 48 18129ft 267kts
28-Apr-18 13:40 39.160941 -105.455490 48 18118ft 267kts
28-Apr-18 13:41 39.208190 -105.381848 48 18106ft 267kts
28-Apr-18 13:42 39.254540 -105.309424 49 17978ft 265kts
28-Apr-18 13:43 39.301591 -105.235768 49 17174ft 264kts
28-Apr-18 13:44 39.347822 -105.163237 49 16257ft 258kts
28-Apr-18 13:45 39.391496 -105.094630 50 14681ft 258kts
28-Apr-18 13:46 39.436594 -105.023542 50 14004ft 257kts
28-Apr-18 13:47 39.482202 -104.951543 51 14002ft 263kts
28-Apr-18 13:48 39.528575 -104.878114 52 14002ft 265kts
28-Apr-18 13:49 39.574804 -104.804701 52 13460ft 260kts
28-Apr-18 13:50 39.621699 -104.735636 30 11787ft 257kts
28-Apr-18 13:51 39.682662 -104.690952 30 10199ft 248kts
28-Apr-18 13:52 39.741997 -104.648540 30 8677ft 239kts
28-Apr-18 13:53 39.801500 -104.631380 1 7975ft 195kts
28-Apr-18 13:54 39.851098 -104.625803 9 8012ft 207kts
28-Apr-18 13:55 39.914881 -104.615433 7 7778ft 218kts
28-Apr-18 13:56 39.928259 -104.651613 216 6657ft 160kts
28-Apr-18 13:57 39.886639 -104.659746 183 5767ft 142kts
28-Apr-18 13:58 39.849689 -104.660240 184 5439ft 83kts
28-Apr-18 13:59 39.840913 -104.661322 209 5439ft 10kts
28-Apr-18 14:00 39.840026 -104.663597 235 5439ft 15kts
28-Apr-18 14:01 39.839779 -104.665075 86 5439ft 0kts

Navigation Log

Ident Type
Flight plan parsing failed, navigation log unavailable